sensor_id;sensor_type;location;lat;lon;timestamp;P1;durP1;ratioP1;P2;durP2;ratioP2
33279;SDS011;20403;43.114;12.434;2023-05-10T00:00:04;8.48;;;6.40;;
33279;SDS011;20403;43.114;12.434;2023-05-10T00:02:31;10.85;;;7.70;;
33279;SDS011;20403;43.114;12.434;2023-05-10T00:04:56;10.43;;;7.32;;
33279;SDS011;20403;43.114;12.434;2023-05-10T00:07:21;9.10;;;6.85;;
33279;SDS011;20403;43.114;12.434;2023-05-10T00:09:47;7.65;;;6.85;;
33279;SDS011;20403;43.114;12.434;2023-05-10T00:12:12;13.57;;;7.53;;
33279;SDS011;20403;43.114;12.434;2023-05-10T00:14:38;12.30;;;6.57;;
33279;SDS011;20403;43.114;12.434;2023-05-10T00:17:03;8.40;;;6.80;;
33279;SDS011;20403;43.114;12.434;2023-05-10T00:19:28;13.05;;;8.00;;
33279;SDS011;20403;43.114;12.434;2023-05-10T00:21:54;9.63;;;7.65;;
33279;SDS011;20403;43.114;12.434;2023-05-10T00:24:19;15.15;;;7.38;;
33279;SDS011;20403;43.114;12.434;2023-05-10T00:26:44;11.85;;;8.57;;
33279;SDS011;20403;43.114;12.434;2023-05-10T00:29:10;13.07;;;7.72;;
33279;SDS011;20403;43.114;12.434;2023-05-10T00:31:35;10.60;;;7.30;;
33279;SDS011;20403;43.114;12.434;2023-05-10T00:34:01;13.07;;;8.07;;
33279;SDS011;20403;43.114;12.434;2023-05-10T00:36:26;10.88;;;7.05;;
33279;SDS011;20403;43.114;12.434;2023-05-10T00:38:52;12.27;;;7.38;;
33279;SDS011;20403;43.114;12.434;2023-05-10T00:41:18;14.77;;;7.18;;
33279;SDS011;20403;43.114;12.434;2023-05-10T00:43:43;9.10;;;6.57;;
33279;SDS011;20403;43.114;12.434;2023-05-10T00:46:08;7.85;;;6.60;;
33279;SDS011;20403;43.114;12.434;2023-05-10T00:48:34;10.70;;;6.22;;
33279;SDS011;20403;43.114;12.434;2023-05-10T00:51:00;13.75;;;7.63;;
33279;SDS011;20403;43.114;12.434;2023-05-10T00:53:26;13.95;;;6.45;;
33279;SDS011;20403;43.114;12.434;2023-05-10T00:55:52;9.55;;;6.93;;
33279;SDS011;20403;43.114;12.434;2023-05-10T00:58:18;11.38;;;7.53;;
33279;SDS011;20403;43.114;12.434;2023-05-10T01:00:43;13.88;;;6.90;;
33279;SDS011;20403;43.114;12.434;2023-05-10T01:03:11;10.07;;;7.15;;
33279;SDS011;20403;43.114;12.434;2023-05-10T01:05:37;8.38;;;6.88;;
33279;SDS011;20403;43.114;12.434;2023-05-10T01:08:09;12.07;;;7.05;;
33279;SDS011;20403;43.114;12.434;2023-05-10T01:10:34;10.32;;;7.90;;
33279;SDS011;20403;43.114;12.434;2023-05-10T01:13:00;12.57;;;6.97;;
33279;SDS011;20403;43.114;12.434;2023-05-10T01:15:26;9.70;;;7.63;;
33279;SDS011;20403;43.114;12.434;2023-05-10T01:17:51;9.48;;;6.22;;
33279;SDS011;20403;43.114;12.434;2023-05-10T01:20:18;10.23;;;6.60;;
33279;SDS011;20403;43.114;12.434;2023-05-10T01:28:38;9.30;;;6.70;;
33279;SDS011;20403;43.114;12.434;2023-05-10T01:33:59;9.05;;;6.60;;
33279;SDS011;20403;43.114;12.434;2023-05-10T01:36:37;8.70;;;6.47;;
33279;SDS011;20403;43.114;12.434;2023-05-10T01:39:11;8.95;;;6.03;;
33279;SDS011;20403;43.114;12.434;2023-05-10T01:41:54;17.27;;;7.65;;
33279;SDS011;20403;43.114;12.434;2023-05-10T01:44:33;8.15;;;6.40;;
33279;SDS011;20403;43.114;12.434;2023-05-10T01:47:07;13.15;;;6.75;;
33279;SDS011;20403;43.114;12.434;2023-05-10T01:49:44;13.90;;;7.18;;
33279;SDS011;20403;43.114;12.434;2023-05-10T01:52:15;14.45;;;7.45;;
33279;SDS011;20403;43.114;12.434;2023-05-10T01:54:48;12.85;;;6.78;;
33279;SDS011;20403;43.114;12.434;2023-05-10T01:57:16;11.80;;;6.30;;
33279;SDS011;20403;43.114;12.434;2023-05-10T01:59:45;9.73;;;7.25;;
33279;SDS011;20403;43.114;12.434;2023-05-10T02:02:15;12.07;;;6.63;;
33279;SDS011;20403;43.114;12.434;2023-05-10T02:04:43;12.20;;;7.30;;
33279;SDS011;20403;43.114;12.434;2023-05-10T02:07:10;9.70;;;7.57;;
33279;SDS011;20403;43.114;12.434;2023-05-10T02:09:37;11.07;;;6.50;;
33279;SDS011;20403;43.114;12.434;2023-05-10T02:12:03;18.48;;;7.88;;
33279;SDS011;20403;43.114;12.434;2023-05-10T02:14:30;17.65;;;7.97;;
33279;SDS011;20403;43.114;12.434;2023-05-10T02:16:59;9.05;;;7.63;;
33279;SDS011;20403;43.114;12.434;2023-05-10T02:19:27;11.10;;;7.15;;
33279;SDS011;20403;43.114;12.434;2023-05-10T02:21:53;9.77;;;6.78;;
33279;SDS011;20403;43.114;12.434;2023-05-10T02:24:20;11.77;;;7.43;;
33279;SDS011;20403;43.114;12.434;2023-05-10T02:26:48;16.85;;;8.68;;
33279;SDS011;20403;43.114;12.434;2023-05-10T02:29:16;17.02;;;9.18;;
33279;SDS011;20403;43.114;12.434;2023-05-10T02:31:43;12.68;;;8.93;;
33279;SDS011;20403;43.114;12.434;2023-05-10T02:34:10;11.70;;;8.55;;
33279;SDS011;20403;43.114;12.434;2023-05-10T02:36:37;11.25;;;8.73;;
33279;SDS011;20403;43.114;12.434;2023-05-10T02:39:04;14.90;;;9.00;;
33279;SDS011;20403;43.114;12.434;2023-05-10T02:41:34;14.53;;;7.83;;
33279;SDS011;20403;43.114;12.434;2023-05-10T02:44:02;12.55;;;7.75;;
33279;SDS011;20403;43.114;12.434;2023-05-10T02:46:31;12.18;;;9.63;;
33279;SDS011;20403;43.114;12.434;2023-05-10T02:48:57;11.48;;;9.63;;
33279;SDS011;20403;43.114;12.434;2023-05-10T02:51:24;16.15;;;10.30;;
33279;SDS011;20403;43.114;12.434;2023-05-10T02:53:53;19.90;;;10.82;;
33279;SDS011;20403;43.114;12.434;2023-05-10T02:56:24;17.33;;;10.52;;
33279;SDS011;20403;43.114;12.434;2023-05-10T02:58:53;14.68;;;10.85;;
33279;SDS011;20403;43.114;12.434;2023-05-10T03:01:19;14.35;;;10.38;;
33279;SDS011;20403;43.114;12.434;2023-05-10T03:03:45;14.70;;;10.45;;
33279;SDS011;20403;43.114;12.434;2023-05-10T03:06:10;15.50;;;10.27;;
33279;SDS011;20403;43.114;12.434;2023-05-10T03:08:36;14.10;;;10.10;;
33279;SDS011;20403;43.114;12.434;2023-05-10T03:11:16;17.33;;;10.50;;
33279;SDS011;20403;43.114;12.434;2023-05-10T03:16:45;16.73;;;10.55;;
33279;SDS011;20403;43.114;12.434;2023-05-10T03:19:22;16.25;;;10.70;;
33279;SDS011;20403;43.114;12.434;2023-05-10T03:21:52;16.10;;;11.65;;
33279;SDS011;20403;43.114;12.434;2023-05-10T03:24:20;16.25;;;10.88;;
33279;SDS011;20403;43.114;12.434;2023-05-10T03:26:48;17.92;;;10.75;;
33279;SDS011;20403;43.114;12.434;2023-05-10T03:29:15;15.43;;;10.48;;
33279;SDS011;20403;43.114;12.434;2023-05-10T03:31:41;13.30;;;10.75;;
33279;SDS011;20403;43.114;12.434;2023-05-10T03:34:06;17.55;;;11.18;;
33279;SDS011;20403;43.114;12.434;2023-05-10T03:36:32;23.20;;;10.55;;
33279;SDS011;20403;43.114;12.434;2023-05-10T03:38:57;15.98;;;10.82;;
33279;SDS011;20403;43.114;12.434;2023-05-10T03:41:23;22.10;;;11.68;;
33279;SDS011;20403;43.114;12.434;2023-05-10T03:43:50;18.15;;;11.10;;
33279;SDS011;20403;43.114;12.434;2023-05-10T03:46:16;19.55;;;10.93;;
33279;SDS011;20403;43.114;12.434;2023-05-10T03:48:41;15.68;;;11.25;;
33279;SDS011;20403;43.114;12.434;2023-05-10T03:51:07;14.38;;;10.88;;
33279;SDS011;20403;43.114;12.434;2023-05-10T03:53:32;15.10;;;11.10;;
33279;SDS011;20403;43.114;12.434;2023-05-10T03:55:58;19.15;;;11.00;;
33279;SDS011;20403;43.114;12.434;2023-05-10T03:58:23;25.33;;;11.45;;
33279;SDS011;20403;43.114;12.434;2023-05-10T04:00:48;16.98;;;11.82;;
33279;SDS011;20403;43.114;12.434;2023-05-10T04:03:14;16.38;;;11.85;;
33279;SDS011;20403;43.114;12.434;2023-05-10T04:05:39;18.85;;;13.63;;
33279;SDS011;20403;43.114;12.434;2023-05-10T04:08:05;21.40;;;12.45;;
33279;SDS011;20403;43.114;12.434;2023-05-10T04:10:31;20.77;;;13.13;;
33279;SDS011;20403;43.114;12.434;2023-05-10T04:12:57;18.92;;;13.27;;
33279;SDS011;20403;43.114;12.434;2023-05-10T04:15:23;19.92;;;12.60;;
33279;SDS011;20403;43.114;12.434;2023-05-10T04:17:48;21.55;;;13.20;;
33279;SDS011;20403;43.114;12.434;2023-05-10T04:20:15;19.23;;;13.07;;
33279;SDS011;20403;43.114;12.434;2023-05-10T04:22:40;18.58;;;12.77;;
33279;SDS011;20403;43.114;12.434;2023-05-10T04:25:06;17.83;;;13.13;;
33279;SDS011;20403;43.114;12.434;2023-05-10T04:27:32;23.38;;;13.93;;
33279;SDS011;20403;43.114;12.434;2023-05-10T04:29:57;22.30;;;12.77;;
33279;SDS011;20403;43.114;12.434;2023-05-10T04:32:23;19.00;;;13.55;;
33279;SDS011;20403;43.114;12.434;2023-05-10T04:34:48;20.65;;;13.43;;
33279;SDS011;20403;43.114;12.434;2023-05-10T04:37:14;23.02;;;14.45;;
33279;SDS011;20403;43.114;12.434;2023-05-10T04:39:39;24.10;;;14.25;;
33279;SDS011;20403;43.114;12.434;2023-05-10T04:42:05;20.38;;;14.00;;
33279;SDS011;20403;43.114;12.434;2023-05-10T04:44:31;19.92;;;13.43;;
33279;SDS011;20403;43.114;12.434;2023-05-10T04:46:59;24.40;;;13.93;;
33279;SDS011;20403;43.114;12.434;2023-05-10T04:49:25;21.50;;;13.38;;
33279;SDS011;20403;43.114;12.434;2023-05-10T04:51:50;21.20;;;14.35;;
33279;SDS011;20403;43.114;12.434;2023-05-10T04:54:16;18.17;;;13.85;;
33279;SDS011;20403;43.114;12.434;2023-05-10T04:56:41;21.05;;;14.30;;
33279;SDS011;20403;43.114;12.434;2023-05-10T04:59:07;18.85;;;13.93;;
33279;SDS011;20403;43.114;12.434;2023-05-10T05:01:32;27.20;;;14.90;;
33279;SDS011;20403;43.114;12.434;2023-05-10T05:03:58;18.65;;;13.55;;
33279;SDS011;20403;43.114;12.434;2023-05-10T05:06:24;19.95;;;13.60;;
33279;SDS011;20403;43.114;12.434;2023-05-10T05:08:50;21.90;;;13.68;;
33279;SDS011;20403;43.114;12.434;2023-05-10T05:11:16;24.30;;;14.60;;
33279;SDS011;20403;43.114;12.434;2023-05-10T05:13:42;18.92;;;14.32;;
33279;SDS011;20403;43.114;12.434;2023-05-10T05:16:07;17.42;;;13.13;;
33279;SDS011;20403;43.114;12.434;2023-05-10T05:18:32;24.20;;;14.77;;
33279;SDS011;20403;43.114;12.434;2023-05-10T05:20:58;18.67;;;14.48;;
33279;SDS011;20403;43.114;12.434;2023-05-10T05:23:23;21.08;;;14.27;;
33279;SDS011;20403;43.114;12.434;2023-05-10T05:25:51;20.88;;;14.20;;
33279;SDS011;20403;43.114;12.434;2023-05-10T05:28:20;21.15;;;14.77;;
33279;SDS011;20403;43.114;12.434;2023-05-10T05:30:45;20.85;;;14.18;;
33279;SDS011;20403;43.114;12.434;2023-05-10T05:33:12;26.15;;;15.20;;
33279;SDS011;20403;43.114;12.434;2023-05-10T05:35:38;19.25;;;14.18;;
33279;SDS011;20403;43.114;12.434;2023-05-10T05:38:04;20.75;;;14.95;;
33279;SDS011;20403;43.114;12.434;2023-05-10T05:40:29;17.98;;;14.45;;
33279;SDS011;20403;43.114;12.434;2023-05-10T05:42:54;16.75;;;13.50;;
33279;SDS011;20403;43.114;12.434;2023-05-10T05:45:20;25.02;;;14.80;;
33279;SDS011;20403;43.114;12.434;2023-05-10T05:47:46;16.92;;;13.75;;
33279;SDS011;20403;43.114;12.434;2023-05-10T05:50:12;16.85;;;13.52;;
33279;SDS011;20403;43.114;12.434;2023-05-10T05:52:37;16.55;;;13.02;;
33279;SDS011;20403;43.114;12.434;2023-05-10T05:55:03;17.45;;;13.27;;
33279;SDS011;20403;43.114;12.434;2023-05-10T05:57:28;20.08;;;13.65;;
33279;SDS011;20403;43.114;12.434;2023-05-10T05:59:54;21.38;;;14.20;;
33279;SDS011;20403;43.114;12.434;2023-05-10T06:02:19;20.05;;;14.05;;
33279;SDS011;20403;43.114;12.434;2023-05-10T06:04:45;17.38;;;13.02;;
33279;SDS011;20403;43.114;12.434;2023-05-10T06:07:10;18.90;;;14.02;;
33279;SDS011;20403;43.114;12.434;2023-05-10T06:09:36;21.55;;;14.07;;
33279;SDS011;20403;43.114;12.434;2023-05-10T06:12:01;22.08;;;15.35;;
33279;SDS011;20403;43.114;12.434;2023-05-10T06:14:26;20.50;;;13.77;;
33279;SDS011;20403;43.114;12.434;2023-05-10T06:16:52;21.55;;;13.40;;
33279;SDS011;20403;43.114;12.434;2023-05-10T06:19:17;20.10;;;14.02;;
33279;SDS011;20403;43.114;12.434;2023-05-10T06:21:43;23.52;;;14.27;;
33279;SDS011;20403;43.114;12.434;2023-05-10T06:24:08;24.65;;;15.52;;
33279;SDS011;20403;43.114;12.434;2023-05-10T06:26:34;21.27;;;15.23;;
33279;SDS011;20403;43.114;12.434;2023-05-10T06:28:59;20.20;;;15.32;;
33279;SDS011;20403;43.114;12.434;2023-05-10T06:31:25;23.35;;;15.70;;
33279;SDS011;20403;43.114;12.434;2023-05-10T06:33:50;20.58;;;14.10;;
33279;SDS011;20403;43.114;12.434;2023-05-10T06:36:16;22.15;;;13.98;;
33279;SDS011;20403;43.114;12.434;2023-05-10T06:38:41;23.75;;;14.70;;
33279;SDS011;20403;43.114;12.434;2023-05-10T06:41:07;22.80;;;14.43;;
33279;SDS011;20403;43.114;12.434;2023-05-10T06:43:33;19.48;;;14.00;;
33279;SDS011;20403;43.114;12.434;2023-05-10T06:45:58;18.80;;;14.00;;
33279;SDS011;20403;43.114;12.434;2023-05-10T06:48:23;22.73;;;15.25;;
33279;SDS011;20403;43.114;12.434;2023-05-10T06:50:49;21.58;;;13.98;;
33279;SDS011;20403;43.114;12.434;2023-05-10T06:53:14;23.85;;;13.75;;
33279;SDS011;20403;43.114;12.434;2023-05-10T06:55:40;16.80;;;11.85;;
33279;SDS011;20403;43.114;12.434;2023-05-10T06:58:05;15.27;;;10.00;;
33279;SDS011;20403;43.114;12.434;2023-05-10T07:00:31;16.95;;;10.15;;
33279;SDS011;20403;43.114;12.434;2023-05-10T07:02:57;14.30;;;9.00;;
33279;SDS011;20403;43.114;12.434;2023-05-10T07:05:22;12.10;;;9.65;;
33279;SDS011;20403;43.114;12.434;2023-05-10T07:07:47;13.35;;;8.40;;
33279;SDS011;20403;43.114;12.434;2023-05-10T07:10:13;11.82;;;9.20;;
33279;SDS011;20403;43.114;12.434;2023-05-10T07:12:38;18.17;;;9.52;;
33279;SDS011;20403;43.114;12.434;2023-05-10T07:15:04;13.32;;;8.88;;
33279;SDS011;20403;43.114;12.434;2023-05-10T07:17:30;15.80;;;9.77;;
33279;SDS011;20403;43.114;12.434;2023-05-10T07:19:56;12.82;;;9.52;;
33279;SDS011;20403;43.114;12.434;2023-05-10T07:22:21;15.93;;;8.65;;
33279;SDS011;20403;43.114;12.434;2023-05-10T07:24:47;16.90;;;9.35;;
33279;SDS011;20403;43.114;12.434;2023-05-10T07:27:12;15.20;;;8.65;;
33279;SDS011;20403;43.114;12.434;2023-05-10T07:29:38;10.50;;;8.10;;
33279;SDS011;20403;43.114;12.434;2023-05-10T07:32:04;13.10;;;8.23;;
33279;SDS011;20403;43.114;12.434;2023-05-10T07:34:29;17.65;;;8.27;;
33279;SDS011;20403;43.114;12.434;2023-05-10T07:36:59;10.43;;;7.70;;
33279;SDS011;20403;43.114;12.434;2023-05-10T07:39:25;12.88;;;8.60;;
33279;SDS011;20403;43.114;12.434;2023-05-10T07:41:54;9.48;;;7.22;;
33279;SDS011;20403;43.114;12.434;2023-05-10T07:44:20;9.32;;;6.78;;
33279;SDS011;20403;43.114;12.434;2023-05-10T07:46:46;11.23;;;6.93;;
33279;SDS011;20403;43.114;12.434;2023-05-10T07:49:12;14.73;;;7.57;;
33279;SDS011;20403;43.114;12.434;2023-05-10T07:51:38;15.43;;;6.70;;
33279;SDS011;20403;43.114;12.434;2023-05-10T07:54:03;9.70;;;7.32;;
33279;SDS011;20403;43.114;12.434;2023-05-10T07:56:29;12.20;;;7.07;;
33279;SDS011;20403;43.114;12.434;2023-05-10T07:58:57;10.32;;;7.10;;
33279;SDS011;20403;43.114;12.434;2023-05-10T08:01:26;10.02;;;6.88;;
33279;SDS011;20403;43.114;12.434;2023-05-10T08:03:51;17.38;;;8.10;;
33279;SDS011;20403;43.114;12.434;2023-05-10T08:06:18;14.25;;;7.40;;
33279;SDS011;20403;43.114;12.434;2023-05-10T08:08:47;9.80;;;7.60;;
33279;SDS011;20403;43.114;12.434;2023-05-10T08:11:17;14.75;;;8.73;;
33279;SDS011;20403;43.114;12.434;2023-05-10T08:13:43;12.60;;;8.20;;
33279;SDS011;20403;43.114;12.434;2023-05-10T08:16:09;10.65;;;8.13;;
33279;SDS011;20403;43.114;12.434;2023-05-10T08:18:34;12.50;;;7.70;;
33279;SDS011;20403;43.114;12.434;2023-05-10T08:21:00;12.93;;;7.07;;
33279;SDS011;20403;43.114;12.434;2023-05-10T08:23:25;13.13;;;7.22;;
33279;SDS011;20403;43.114;12.434;2023-05-10T08:25:50;24.25;;;8.57;;
33279;SDS011;20403;43.114;12.434;2023-05-10T08:28:16;18.23;;;8.88;;
33279;SDS011;20403;43.114;12.434;2023-05-10T08:30:41;22.63;;;8.45;;
33279;SDS011;20403;43.114;12.434;2023-05-10T08:33:07;17.40;;;8.20;;
33279;SDS011;20403;43.114;12.434;2023-05-10T08:35:32;14.32;;;8.65;;
33279;SDS011;20403;43.114;12.434;2023-05-10T08:38:00;14.23;;;8.98;;
33279;SDS011;20403;43.114;12.434;2023-05-10T08:40:25;12.70;;;8.52;;
33279;SDS011;20403;43.114;12.434;2023-05-10T08:42:54;13.82;;;9.05;;
33279;SDS011;20403;43.114;12.434;2023-05-10T08:45:23;16.40;;;8.85;;
33279;SDS011;20403;43.114;12.434;2023-05-10T08:47:52;13.68;;;9.32;;
33279;SDS011;20403;43.114;12.434;2023-05-10T08:50:19;18.92;;;10.27;;
33279;SDS011;20403;43.114;12.434;2023-05-10T08:52:46;14.32;;;9.27;;
33279;SDS011;20403;43.114;12.434;2023-05-10T08:55:15;14.10;;;8.82;;
33279;SDS011;20403;43.114;12.434;2023-05-10T08:57:41;17.92;;;9.07;;
33279;SDS011;20403;43.114;12.434;2023-05-10T09:00:06;34.83;;;21.33;;
33279;SDS011;20403;43.114;12.434;2023-05-10T09:02:33;21.42;;;13.65;;
33279;SDS011;20403;43.114;12.434;2023-05-10T09:04:59;16.17;;;11.10;;
33279;SDS011;20403;43.114;12.434;2023-05-10T09:07:25;17.98;;;11.23;;
33279;SDS011;20403;43.114;12.434;2023-05-10T09:09:50;17.13;;;11.52;;
33279;SDS011;20403;43.114;12.434;2023-05-10T09:12:17;21.15;;;15.18;;
33279;SDS011;20403;43.114;12.434;2023-05-10T09:14:42;19.58;;;12.98;;
33279;SDS011;20403;43.114;12.434;2023-05-10T09:17:09;18.83;;;12.23;;
33279;SDS011;20403;43.114;12.434;2023-05-10T09:19:35;14.70;;;11.13;;
33279;SDS011;20403;43.114;12.434;2023-05-10T09:22:00;18.48;;;13.20;;
33279;SDS011;20403;43.114;12.434;2023-05-10T09:24:28;19.42;;;12.38;;
33279;SDS011;20403;43.114;12.434;2023-05-10T09:26:55;18.02;;;12.38;;
33279;SDS011;20403;43.114;12.434;2023-05-10T09:29:22;22.08;;;11.27;;
33279;SDS011;20403;43.114;12.434;2023-05-10T09:31:48;14.40;;;11.20;;
33279;SDS011;20403;43.114;12.434;2023-05-10T09:34:28;22.63;;;8.02;;
33279;SDS011;20403;43.114;12.434;2023-05-10T09:36:56;15.43;;;9.77;;
33279;SDS011;20403;43.114;12.434;2023-05-10T09:39:40;16.83;;;9.40;;
33279;SDS011;20403;43.114;12.434;2023-05-10T09:42:09;15.52;;;9.98;;
33279;SDS011;20403;43.114;12.434;2023-05-10T09:44:35;11.48;;;8.63;;
33279;SDS011;20403;43.114;12.434;2023-05-10T09:47:02;14.43;;;6.47;;
33279;SDS011;20403;43.114;12.434;2023-05-10T09:49:27;7.95;;;6.10;;
33279;SDS011;20403;43.114;12.434;2023-05-10T09:52:00;6.50;;;4.88;;
33279;SDS011;20403;43.114;12.434;2023-05-10T09:54:30;10.43;;;5.40;;
33279;SDS011;20403;43.114;12.434;2023-05-10T09:56:56;6.78;;;5.35;;
33279;SDS011;20403;43.114;12.434;2023-05-10T09:59:21;6.63;;;5.30;;
33279;SDS011;20403;43.114;12.434;2023-05-10T10:01:51;6.72;;;5.05;;
33279;SDS011;20403;43.114;12.434;2023-05-10T10:04:17;7.65;;;5.35;;
33279;SDS011;20403;43.114;12.434;2023-05-10T10:06:46;7.72;;;5.22;;
33279;SDS011;20403;43.114;12.434;2023-05-10T10:09:11;9.63;;;5.28;;
33279;SDS011;20403;43.114;12.434;2023-05-10T10:11:38;7.10;;;5.28;;
33279;SDS011;20403;43.114;12.434;2023-05-10T10:14:04;8.82;;;5.25;;
33279;SDS011;20403;43.114;12.434;2023-05-10T10:16:30;7.18;;;4.80;;
33279;SDS011;20403;43.114;12.434;2023-05-10T10:18:56;6.90;;;5.40;;
33279;SDS011;20403;43.114;12.434;2023-05-10T10:21:22;9.98;;;5.13;;
33279;SDS011;20403;43.114;12.434;2023-05-10T10:23:48;6.72;;;5.25;;
33279;SDS011;20403;43.114;12.434;2023-05-10T10:26:14;7.45;;;5.00;;
33279;SDS011;20403;43.114;12.434;2023-05-10T10:31:31;9.00;;;5.30;;
33279;SDS011;20403;43.114;12.434;2023-05-10T10:36:44;7.97;;;5.45;;
33279;SDS011;20403;43.114;12.434;2023-05-10T10:39:10;9.00;;;6.00;;
33279;SDS011;20403;43.114;12.434;2023-05-10T11:02:52;7.15;;;5.60;;
33279;SDS011;20403;43.114;12.434;2023-05-10T11:08:00;9.50;;;6.22;;
33279;SDS011;20403;43.114;12.434;2023-05-10T11:10:35;7.57;;;5.72;;
33279;SDS011;20403;43.114;12.434;2023-05-10T11:13:07;6.53;;;5.40;;
33279;SDS011;20403;43.114;12.434;2023-05-10T11:15:38;8.73;;;5.85;;
33279;SDS011;20403;43.114;12.434;2023-05-10T11:18:26;9.80;;;5.75;;
33279;SDS011;20403;43.114;12.434;2023-05-10T11:20:51;11.32;;;5.38;;
33279;SDS011;20403;43.114;12.434;2023-05-10T11:23:17;8.52;;;5.60;;
33279;SDS011;20403;43.114;12.434;2023-05-10T11:25:44;6.72;;;5.53;;
33279;SDS011;20403;43.114;12.434;2023-05-10T11:28:13;8.73;;;5.53;;
33279;SDS011;20403;43.114;12.434;2023-05-10T11:30:39;7.68;;;5.70;;
33279;SDS011;20403;43.114;12.434;2023-05-10T11:33:07;11.35;;;4.80;;
33279;SDS011;20403;43.114;12.434;2023-05-10T11:35:39;7.70;;;4.78;;
33279;SDS011;20403;43.114;12.434;2023-05-10T11:38:07;5.47;;;4.72;;
33279;SDS011;20403;43.114;12.434;2023-05-10T11:40:36;7.32;;;4.97;;
33279;SDS011;20403;43.114;12.434;2023-05-10T11:43:03;8.82;;;4.20;;
33279;SDS011;20403;43.114;12.434;2023-05-10T11:45:32;8.02;;;5.30;;
33279;SDS011;20403;43.114;12.434;2023-05-10T11:47:58;9.38;;;4.88;;
33279;SDS011;20403;43.114;12.434;2023-05-10T11:50:24;10.48;;;5.38;;
33279;SDS011;20403;43.114;12.434;2023-05-10T11:52:54;10.18;;;5.30;;
33279;SDS011;20403;43.114;12.434;2023-05-10T11:55:20;14.30;;;5.05;;
33279;SDS011;20403;43.114;12.434;2023-05-10T11:57:46;7.63;;;5.18;;
33279;SDS011;20403;43.114;12.434;2023-05-10T12:00:12;8.75;;;4.70;;
33279;SDS011;20403;43.114;12.434;2023-05-10T12:02:39;7.03;;;4.55;;
33279;SDS011;20403;43.114;12.434;2023-05-10T12:05:05;13.68;;;4.78;;
33279;SDS011;20403;43.114;12.434;2023-05-10T12:07:32;7.10;;;5.00;;
33279;SDS011;20403;43.114;12.434;2023-05-10T12:12:38;6.13;;;4.80;;
33279;SDS011;20403;43.114;12.434;2023-05-10T12:15:25;7.40;;;4.93;;
33279;SDS011;20403;43.114;12.434;2023-05-10T12:17:52;8.18;;;4.88;;
33279;SDS011;20403;43.114;12.434;2023-05-10T12:20:19;7.63;;;4.70;;
33279;SDS011;20403;43.114;12.434;2023-05-10T12:22:46;8.80;;;4.60;;
33279;SDS011;20403;43.114;12.434;2023-05-10T12:25:12;12.20;;;5.03;;
33279;SDS011;20403;43.114;12.434;2023-05-10T12:27:37;8.60;;;4.93;;
33279;SDS011;20403;43.114;12.434;2023-05-10T12:30:03;7.05;;;5.00;;
33279;SDS011;20403;43.114;12.434;2023-05-10T12:32:38;10.35;;;5.13;;
33279;SDS011;20403;43.114;12.434;2023-05-10T12:35:05;8.30;;;5.50;;
33279;SDS011;20403;43.114;12.434;2023-05-10T12:37:31;5.85;;;4.85;;
33279;SDS011;20403;43.114;12.434;2023-05-10T12:40:00;8.02;;;5.68;;
33279;SDS011;20403;43.114;12.434;2023-05-10T12:42:27;8.13;;;5.35;;
33279;SDS011;20403;43.114;12.434;2023-05-10T12:44:56;7.65;;;5.07;;
33279;SDS011;20403;43.114;12.434;2023-05-10T12:47:22;8.20;;;6.00;;
33279;SDS011;20403;43.114;12.434;2023-05-10T12:49:47;9.02;;;5.07;;
33279;SDS011;20403;43.114;12.434;2023-05-10T12:52:12;9.27;;;5.50;;
33279;SDS011;20403;43.114;12.434;2023-05-10T12:54:38;8.32;;;5.10;;
33279;SDS011;20403;43.114;12.434;2023-05-10T12:57:03;5.78;;;4.85;;
33279;SDS011;20403;43.114;12.434;2023-05-10T12:59:29;13.73;;;5.50;;
33279;SDS011;20403;43.114;12.434;2023-05-10T13:01:54;9.30;;;6.22;;
33279;SDS011;20403;43.114;12.434;2023-05-10T13:04:20;11.85;;;5.60;;
33279;SDS011;20403;43.114;12.434;2023-05-10T13:06:45;8.98;;;5.25;;
33279;SDS011;20403;43.114;12.434;2023-05-10T13:09:10;10.85;;;6.03;;
33279;SDS011;20403;43.114;12.434;2023-05-10T13:11:36;11.52;;;5.20;;
33279;SDS011;20403;43.114;12.434;2023-05-10T13:14:01;12.43;;;5.97;;
33279;SDS011;20403;43.114;12.434;2023-05-10T13:16:28;11.27;;;5.80;;
33279;SDS011;20403;43.114;12.434;2023-05-10T13:18:53;9.18;;;5.25;;
33279;SDS011;20403;43.114;12.434;2023-05-10T13:21:19;6.85;;;5.50;;
33279;SDS011;20403;43.114;12.434;2023-05-10T13:23:44;11.32;;;6.25;;
33279;SDS011;20403;43.114;12.434;2023-05-10T13:26:09;7.65;;;5.40;;
33279;SDS011;20403;43.114;12.434;2023-05-10T13:28:35;3.55;;;2.90;;
33279;SDS011;20403;43.114;12.434;2023-05-10T13:31:00;5.53;;;4.03;;
33279;SDS011;20403;43.114;12.434;2023-05-10T13:33:26;5.65;;;4.30;;
33279;SDS011;20403;43.114;12.434;2023-05-10T13:35:51;7.30;;;4.57;;
33279;SDS011;20403;43.114;12.434;2023-05-10T13:38:16;8.00;;;5.03;;
33279;SDS011;20403;43.114;12.434;2023-05-10T13:40:42;6.03;;;4.75;;
33279;SDS011;20403;43.114;12.434;2023-05-10T13:43:07;7.47;;;5.57;;
33279;SDS011;20403;43.114;12.434;2023-05-10T13:45:33;7.40;;;4.80;;
33279;SDS011;20403;43.114;12.434;2023-05-10T13:47:59;5.82;;;4.90;;
33279;SDS011;20403;43.114;12.434;2023-05-10T13:50:24;8.70;;;4.90;;
33279;SDS011;20403;43.114;12.434;2023-05-10T13:52:49;6.03;;;4.88;;
33279;SDS011;20403;43.114;12.434;2023-05-10T13:55:15;11.15;;;5.05;;
33279;SDS011;20403;43.114;12.434;2023-05-10T13:57:40;10.77;;;5.55;;
33279;SDS011;20403;43.114;12.434;2023-05-10T14:00:07;5.70;;;4.75;;
33279;SDS011;20403;43.114;12.434;2023-05-10T14:02:33;9.70;;;5.30;;
33279;SDS011;20403;43.114;12.434;2023-05-10T14:04:59;7.97;;;4.85;;
33279;SDS011;20403;43.114;12.434;2023-05-10T14:07:25;9.40;;;5.32;;
33279;SDS011;20403;43.114;12.434;2023-05-10T14:09:50;15.05;;;5.03;;
33279;SDS011;20403;43.114;12.434;2023-05-10T14:12:16;5.45;;;4.70;;
33279;SDS011;20403;43.114;12.434;2023-05-10T14:14:41;5.88;;;4.88;;
33279;SDS011;20403;43.114;12.434;2023-05-10T14:17:07;7.10;;;5.03;;
33279;SDS011;20403;43.114;12.434;2023-05-10T14:19:32;8.52;;;5.38;;
33279;SDS011;20403;43.114;12.434;2023-05-10T14:21:59;7.43;;;5.00;;
33279;SDS011;20403;43.114;12.434;2023-05-10T14:24:24;7.15;;;5.70;;
33279;SDS011;20403;43.114;12.434;2023-05-10T14:26:50;6.55;;;5.15;;
33279;SDS011;20403;43.114;12.434;2023-05-10T14:29:18;7.03;;;5.40;;
33279;SDS011;20403;43.114;12.434;2023-05-10T14:31:44;12.73;;;6.78;;
33279;SDS011;20403;43.114;12.434;2023-05-10T14:34:09;8.55;;;6.20;;
33279;SDS011;20403;43.114;12.434;2023-05-10T14:36:35;11.88;;;7.70;;
33279;SDS011;20403;43.114;12.434;2023-05-10T14:39:00;9.32;;;6.75;;
33279;SDS011;20403;43.114;12.434;2023-05-10T14:41:26;9.85;;;5.45;;
33279;SDS011;20403;43.114;12.434;2023-05-10T14:43:51;10.32;;;5.00;;
33279;SDS011;20403;43.114;12.434;2023-05-10T14:46:16;7.55;;;5.65;;
33279;SDS011;20403;43.114;12.434;2023-05-10T14:48:42;11.77;;;5.95;;
33279;SDS011;20403;43.114;12.434;2023-05-10T14:51:08;12.10;;;4.82;;
33279;SDS011;20403;43.114;12.434;2023-05-10T14:53:33;8.40;;;4.70;;
33279;SDS011;20403;43.114;12.434;2023-05-10T14:55:58;8.82;;;4.88;;
33279;SDS011;20403;43.114;12.434;2023-05-10T14:58:26;7.88;;;4.50;;
33279;SDS011;20403;43.114;12.434;2023-05-10T15:00:52;8.82;;;4.18;;